Pagrindinis puslapis
METAR-TAF:

METAR-TAF

Oro uostai :

Kerrville Municipal Airport (Louis Schreiner Field)

Kerrville, Teksasas, Jungtinės Amerikos Valstijos

platuma: 29-58N, ilguma: 099-05W, Aukštis: 493 m

Dabartinis oras

Ataskaita buvo paskelbta 15 minutes, ne 21:55 UTC
Vėjas 15 kt iš Pietų/Pietryčių su gūsio iki 24 kt
Temperatūra 30°C
Drėgmė 49%
Slėgis 1010 hPa
Matomumas: 16.1 km
Išsisklaidę debesys ne aukštis 5000 ft

METAR: KERV 082155Z AUTO 16015G24KT 10SM SCT050 30/18 A2982 RMK AO2 T02950182

Laikas: 17:10 (22:10 UTC)


TAF: trūkstamas

Orai ataskaitas ir orų prognozės (METAR, TAF).

turimą stotys yra geltonos ir raudonos taškus žemėlapyje.

Perkelti pele per norėdami pamatyti stoties vardą.

Tada spustelėkite, norėdami matyti oro stebėjimo ir prognozės.

Norėdami pakeisti žemėlapį: spustelėkite ant žalios mygtukų su juodo kryžiaus žemyn,; žalią mygtuką su brūkšneliu, jei norite nutolinti; arba žalių rodyklių gretimoms žemėlapius.


METAR-TAF: